createdAt,value
2022-07-29T00:00:52.450Z,18.34
2022-07-29T00:01:52.715Z,18.34
2022-07-29T00:02:53.040Z,18.40
2022-07-29T00:03:53.400Z,18.37
2022-07-29T00:04:53.446Z,18.34
2022-07-29T00:05:53.804Z,18.33
2022-07-29T00:06:54.033Z,18.34
2022-07-29T00:07:56.206Z,18.28
2022-07-29T00:08:54.528Z,18.24
2022-07-29T00:09:54.757Z,18.24
2022-07-29T00:10:55.029Z,18.33
2022-07-29T00:11:55.267Z,18.34
2022-07-29T00:12:55.506Z,18.33
2022-07-29T00:13:55.740Z,18.34
2022-07-29T00:14:56.018Z,18.34
2022-07-29T00:15:56.286Z,18.31
2022-07-29T00:16:56.548Z,18.31
2022-07-29T00:17:56.807Z,18.28
2022-07-29T00:18:59.531Z,18.25
2022-07-29T00:19:58.397Z,18.25
2022-07-29T00:20:57.695Z,18.24
2022-07-29T00:21:57.951Z,18.24
2022-07-29T00:22:58.185Z,18.27
2022-07-29T00:23:58.417Z,18.25
2022-07-29T00:24:59.427Z,18.34
2022-07-29T00:25:58.948Z,18.37
2022-07-29T00:26:59.217Z,18.33
2022-07-29T00:27:59.464Z,18.37
2022-07-29T00:29:31.166Z,18.31
2022-07-29T00:30:00.921Z,18.25
2022-07-29T00:31:01.360Z,18.29
2022-07-29T00:32:00.554Z,18.34
2022-07-29T00:33:00.720Z,18.36
2022-07-29T00:34:00.948Z,18.36
2022-07-29T00:35:01.192Z,18.33
2022-07-29T00:36:01.420Z,18.37
2022-07-29T00:37:01.700Z,18.39
2022-07-29T00:38:02.156Z,18.36
2022-07-29T00:39:02.214Z,18.37
2022-07-29T00:40:02.443Z,18.43
2022-07-29T00:41:02.682Z,18.49
2022-07-29T00:42:02.955Z,18.47
2022-07-29T00:43:03.203Z,18.57
2022-07-29T00:44:03.436Z,18.54
2022-07-29T00:45:03.693Z,18.49
2022-07-29T00:46:03.951Z,18.44
2022-07-29T00:47:04.296Z,18.44
2022-07-29T00:48:08.250Z,18.43
2022-07-29T00:49:04.758Z,18.44
2022-07-29T00:50:04.874Z,18.44
2022-07-29T00:51:05.113Z,18.44
2022-07-29T00:52:05.440Z,18.39
2022-07-29T00:53:05.699Z,18.36
2022-07-29T02:56:48.135Z,17.53
2022-07-29T02:57:55.034Z,17.57
2022-07-29T02:58:49.615Z,17.57
2022-07-29T02:59:48.935Z,17.55
2022-07-29T03:00:49.233Z,17.55
2022-07-29T03:01:49.527Z,17.55
2022-07-29T03:02:49.832Z,17.54
2022-07-29T03:03:50.069Z,17.53
2022-07-29T03:04:50.428Z,17.53
2022-07-29T03:05:50.643Z,17.55
2022-07-29T03:06:50.866Z,17.54
2022-07-29T03:07:51.208Z,17.55
2022-07-29T03:08:51.442Z,17.53
2022-07-29T03:09:51.774Z,17.50
2022-07-29T03:10:52.031Z,17.51
2022-07-29T03:11:52.246Z,17.47
2022-07-29T03:12:52.586Z,17.51
2022-07-29T03:13:52.959Z,17.51
2022-07-29T03:14:53.182Z,17.53
2022-07-29T03:15:53.443Z,17.55
2022-07-29T03:16:53.703Z,17.54
2022-07-29T03:17:54.016Z,17.57
2022-07-29T03:18:54.356Z,17.55
2022-07-29T03:19:54.574Z,17.59
2022-07-29T03:20:54.925Z,17.59
2022-07-29T03:21:55.201Z,17.59
2022-07-29T03:22:55.414Z,17.59
2022-07-29T03:23:55.744Z,17.57
2022-07-29T03:24:56.078Z,17.57
2022-07-29T03:25:56.410Z,17.57
2022-07-29T03:26:56.770Z,17.62
2022-07-29T03:27:56.978Z,17.62
2022-07-29T03:28:57.339Z,17.62
2022-07-29T03:29:57.554Z,17.51
2022-07-29T03:30:57.890Z,17.50
2022-07-29T03:31:58.116Z,17.47
2022-07-29T03:32:58.829Z,17.46
2022-07-29T03:33:58.673Z,17.43
2022-07-29T03:34:58.886Z,17.38
2022-07-29T03:35:59.241Z,17.36
2022-07-29T03:36:59.457Z,17.35
2022-07-29T03:37:59.827Z,17.38
2022-07-29T03:39:00.042Z,17.36
2022-07-29T03:40:00.259Z,17.40
2022-07-29T03:41:00.591Z,17.41
2022-07-29T03:42:00.926Z,17.40
2022-07-29T03:43:01.296Z,17.41
2022-07-29T03:44:01.507Z,17.44
2022-07-29T03:45:01.844Z,17.46
2022-07-29T03:46:02.217Z,17.46
2022-07-29T03:47:02.438Z,17.47
2022-07-29T03:48:02.839Z,17.50
2022-07-29T03:49:03.155Z,17.51
2022-07-29T03:50:03.269Z,17.53
2022-07-29T03:51:03.601Z,17.54
2022-07-29T03:52:03.926Z,17.55
2022-07-29T03:53:04.273Z,17.59
2022-07-29T03:54:13.864Z,17.54
2022-07-29T03:55:05.835Z,17.55
2022-07-29T03:56:05.114Z,17.55
2022-07-29T03:57:05.450Z,17.55
2022-07-29T03:58:05.704Z,17.55
2022-07-29T03:59:05.898Z,17.55
2022-07-29T04:00:06.209Z,17.55
2022-07-29T04:01:06.543Z,17.57
2022-07-29T04:02:06.824Z,17.57
2022-07-29T04:03:10.720Z,17.57
2022-07-29T04:04:07.266Z,17.59
2022-07-29T04:05:07.479Z,17.63
2022-07-29T04:06:07.844Z,17.63
2022-07-29T04:07:08.061Z,17.64
2022-07-29T04:08:08.314Z,17.66
2022-07-29T04:09:09.862Z,17.67
2022-07-29T04:10:08.876Z,17.69
2022-07-29T04:11:09.144Z,17.67
2022-07-29T04:12:09.347Z,17.69
2022-07-29T04:13:09.657Z,17.69
2022-07-29T04:14:09.939Z,17.69
2022-07-29T04:15:13.983Z,17.69
2022-07-29T04:16:10.407Z,17.70
2022-07-29T04:17:11.415Z,17.70
2022-07-29T04:18:10.917Z,17.67
2022-07-29T04:19:11.277Z,17.70
2022-07-29T04:20:11.489Z,17.76
2022-07-29T04:21:15.698Z,17.79
2022-07-29T04:22:12.081Z,17.78
2022-07-29T04:23:16.145Z,17.76
2022-07-29T04:24:14.883Z,17.79
2022-07-29T04:25:12.991Z,17.81
2022-07-29T04:26:13.200Z,17.84
2022-07-29T04:27:13.528Z,17.87
2022-07-29T04:28:13.857Z,17.87
2022-07-29T04:29:14.114Z,17.88
2022-07-29T04:30:14.370Z,17.91
2022-07-29T04:31:14.633Z,17.91
2022-07-29T04:32:14.861Z,17.88
2022-07-29T04:33:18.904Z,17.88
2022-07-29T04:34:17.505Z,17.89
2022-07-29T04:35:15.690Z,17.88
2022-07-29T04:36:28.520Z,17.85
2022-07-29T04:37:17.215Z,17.85
2022-07-29T04:38:17.278Z,17.87
2022-07-29T04:39:22.182Z,17.88
2022-07-29T04:40:18.049Z,17.89
2022-07-29T04:41:17.353Z,17.87
2022-07-29T04:42:17.644Z,17.88
2022-07-29T04:43:22.583Z,17.87
2022-07-29T04:44:18.791Z,17.84
2022-07-29T04:45:22.604Z,17.85
2022-07-29T04:46:18.918Z,17.89
2022-07-29T04:47:19.172Z,17.92
2022-07-29T04:48:19.500Z,17.87
2022-07-29T04:49:19.847Z,17.88
2022-07-29T04:50:20.103Z,17.89
2022-07-29T04:51:20.326Z,17.88
2022-07-29T04:52:21.581Z,17.92
2022-07-29T04:53:24.801Z,17.91
2022-07-29T04:54:21.307Z,17.94
2022-07-29T04:55:21.675Z,17.95
2022-07-29T04:56:21.940Z,17.95
2022-07-29T04:57:26.013Z,17.92
2022-07-29T04:58:22.390Z,17.89
2022-07-29T04:59:22.721Z,17.91
2022-07-29T05:00:23.038Z,17.95
2022-07-29T05:01:24.445Z,17.95
2022-07-29T05:02:23.720Z,17.95
2022-07-29T05:03:23.847Z,17.95
2022-07-29T05:04:24.185Z,17.97
2022-07-29T05:05:24.505Z,17.99
2022-07-29T05:06:24.810Z,18.00
2022-07-29T05:07:25.178Z,18.00
2022-07-29T05:08:25.393Z,18.00
2022-07-29T05:09:25.714Z,18.00
2022-07-29T05:10:26.029Z,18.03
2022-07-29T05:11:30.250Z,18.07
2022-07-29T05:12:30.520Z,18.10
2022-07-29T05:13:27.639Z,18.09
2022-07-29T05:14:28.155Z,18.09
2022-07-29T05:15:27.461Z,18.10
2022-07-29T05:16:27.757Z,18.12
2022-07-29T05:17:31.792Z,18.17
2022-07-29T05:18:32.126Z,18.18
2022-07-29T05:19:32.819Z,18.19
2022-07-29T05:20:28.943Z,18.19
2022-07-29T05:21:33.117Z,18.22
2022-07-29T05:22:29.611Z,18.22
2022-07-29T05:23:29.937Z,18.24
2022-07-29T05:24:34.087Z,18.25
2022-07-29T05:25:43.521Z,18.24
2022-07-29T05:26:31.936Z,18.25
2022-07-29T05:27:31.201Z,18.27
2022-07-29T05:28:31.513Z,18.28
2022-07-29T05:29:44.241Z,18.29
2022-07-29T05:30:33.220Z,18.29
2022-07-29T05:31:34.295Z,18.27
2022-07-29T05:32:34.497Z,18.24
2022-07-29T05:33:34.867Z,18.24
2022-07-29T05:34:33.381Z,18.25
2022-07-29T05:35:33.694Z,18.28
2022-07-29T05:36:34.048Z,18.29
2022-07-29T05:37:34.255Z,18.34
2022-07-29T05:38:34.596Z,18.34
2022-07-29T05:39:47.118Z,18.31
2022-07-29T05:40:36.156Z,18.31
2022-07-29T05:41:35.441Z,18.33
2022-07-29T05:42:35.748Z,18.33
2022-07-29T05:43:36.072Z,18.33
2022-07-29T05:44:36.441Z,18.34
2022-07-29T05:45:49.673Z,18.33
2022-07-29T05:46:38.110Z,18.39
2022-07-29T05:47:37.286Z,18.36
2022-07-29T05:48:37.705Z,18.33
2022-07-29T05:49:38.095Z,18.34
2022-07-29T05:50:38.308Z,18.34
2022-07-29T05:51:39.534Z,18.36
2022-07-29T05:52:38.774Z,18.37
2022-07-29T05:53:39.109Z,18.39
2022-07-29T05:54:39.315Z,18.36
2022-07-29T05:55:39.629Z,18.34
2022-07-29T05:56:39.958Z,18.36
2022-07-29T05:57:40.187Z,18.36
2022-07-29T05:58:40.591Z,18.34
2022-07-29T05:59:40.802Z,18.39
2022-07-29T06:00:41.130Z,18.39
2022-07-29T06:01:41.436Z,18.42
2022-07-29T06:02:41.583Z,18.43
2022-07-29T06:03:42.760Z,18.43
2022-07-29T06:04:42.173Z,18.43
2022-07-29T06:05:42.403Z,18.43
2022-07-29T06:06:42.732Z,18.44
2022-07-29T06:07:50.844Z,18.46
2022-07-29T06:08:44.423Z,18.46
2022-07-29T06:09:43.668Z,18.44
2022-07-29T06:10:44.105Z,18.46
2022-07-29T06:11:44.314Z,18.46
2022-07-29T06:12:44.645Z,18.46
2022-07-29T06:13:44.872Z,18.43
2022-07-29T06:14:45.195Z,18.44
2022-07-29T06:15:49.410Z,18.47
2022-07-29T06:16:45.872Z,18.46
2022-07-29T06:18:00.790Z,18.47
2022-07-29T06:18:47.358Z,18.49
2022-07-29T06:19:46.620Z,18.49
2022-07-29T06:20:47.032Z,18.47
2022-07-29T06:21:47.346Z,18.49
2022-07-29T06:22:47.575Z,18.52
2022-07-29T06:23:47.778Z,18.52
2022-07-29T06:24:48.134Z,18.55
2022-07-29T06:25:48.344Z,18.57
2022-07-29T06:26:48.675Z,18.58
2022-07-29T06:27:48.992Z,18.64
2022-07-29T06:28:49.306Z,18.64
2022-07-29T06:29:49.610Z,18.65
2022-07-29T06:30:49.832Z,18.67
2022-07-29T06:31:50.070Z,18.67
2022-07-29T06:32:50.401Z,18.70
2022-07-29T06:33:50.608Z,18.74
2022-07-29T06:34:50.939Z,18.77
2022-07-29T06:35:53.541Z,18.80
2022-07-29T06:36:51.537Z,18.82
2022-07-29T06:37:51.801Z,18.86
2022-07-29T06:38:52.236Z,18.84
2022-07-29T06:39:55.565Z,18.83
2022-07-29T06:40:53.600Z,18.86
2022-07-29T06:41:52.874Z,18.90
2022-07-29T06:42:53.365Z,18.90
2022-07-29T06:43:54.494Z,18.91
2022-07-29T06:44:53.730Z,18.95
2022-07-29T06:45:54.050Z,18.95
2022-07-29T06:46:54.407Z,18.98
2022-07-29T06:47:54.589Z,18.97
2022-07-29T06:48:54.942Z,19.01
2022-07-29T06:49:55.167Z,19.08
2022-07-29T06:51:16.487Z,19.11
2022-07-29T06:51:56.756Z,19.13
2022-07-29T06:52:56.004Z,19.18
2022-07-29T06:53:59.418Z,19.18
2022-07-29T06:54:57.613Z,19.20
2022-07-29T06:55:56.852Z,19.21
2022-07-29T06:57:00.973Z,19.23
2022-07-29T06:57:57.473Z,19.29
2022-07-29T06:58:59.647Z,19.35
2022-07-29T06:59:58.097Z,19.36
2022-07-29T07:00:58.498Z,19.38
2022-07-29T07:01:58.765Z,19.42
2022-07-29T07:02:58.990Z,19.48
2022-07-29T07:03:59.336Z,19.58
2022-07-29T07:04:59.538Z,19.68
2022-07-29T07:05:59.827Z,19.78
2022-07-29T07:07:00.088Z,19.80
2022-07-29T07:08:00.420Z,19.88
2022-07-29T07:09:00.777Z,19.87
2022-07-29T07:10:00.981Z,19.90
2022-07-29T07:11:01.294Z,19.90
2022-07-29T07:12:01.664Z,19.93
2022-07-29T07:13:01.866Z,19.95
2022-07-29T07:14:03.724Z,20.00
2022-07-29T07:15:02.455Z,20.06
2022-07-29T07:16:02.762Z,20.10
2022-07-29T07:17:06.954Z,20.13
2022-07-29T07:18:03.385Z,20.13
2022-07-29T07:19:05.524Z,20.15
2022-07-29T07:20:03.976Z,20.16
2022-07-29T07:21:05.042Z,20.20
2022-07-29T07:22:04.416Z,20.27
2022-07-29T07:23:04.647Z,20.27
2022-07-29T07:24:04.943Z,20.28
2022-07-29T07:25:05.233Z,20.30
2022-07-29T07:26:07.700Z,20.34
2022-07-29T07:27:05.901Z,20.42
2022-07-29T07:28:06.194Z,20.46
2022-07-29T07:29:06.502Z,20.47
2022-07-29T07:30:06.800Z,20.47
2022-07-29T07:31:07.150Z,20.47
2022-07-29T07:32:07.376Z,20.43
2022-07-29T07:33:07.560Z,20.42
2022-07-29T07:34:07.879Z,20.46
2022-07-29T07:35:08.188Z,20.43
2022-07-29T07:36:08.512Z,20.42
2022-07-29T07:37:08.851Z,20.41
2022-07-29T07:38:09.154Z,20.43
2022-07-29T07:39:09.463Z,20.49
2022-07-29T07:40:09.776Z,20.53
2022-07-29T07:41:10.126Z,20.53
2022-07-29T07:42:10.317Z,20.58
2022-07-29T07:43:10.619Z,20.61
2022-07-29T07:44:15.875Z,20.62
2022-07-29T07:45:13.916Z,20.65
2022-07-29T07:46:11.625Z,20.66
2022-07-29T07:47:16.045Z,20.66
2022-07-29T07:48:12.196Z,20.69
2022-07-29T07:49:12.515Z,20.71
2022-07-29T07:50:16.544Z,20.74
2022-07-29T07:51:13.943Z,20.74
2022-07-29T07:52:13.230Z,20.74
2022-07-29T07:53:13.446Z,20.77
2022-07-29T07:54:14.072Z,20.76
2022-07-29T07:55:14.048Z,20.79
2022-07-29T07:56:14.384Z,20.80
2022-07-29T07:57:18.421Z,20.79
2022-07-29T07:58:14.918Z,20.80
2022-07-29T07:59:15.228Z,20.83
2022-07-29T08:00:15.517Z,20.84
2022-07-29T08:01:15.973Z,20.81
2022-07-29T08:02:16.242Z,20.80
2022-07-29T08:03:17.153Z,20.87
2022-07-29T08:04:25.128Z,20.90
2022-07-29T08:05:18.070Z,20.91
2022-07-29T08:06:17.203Z,20.91
2022-07-29T08:07:17.384Z,20.90
2022-07-29T08:08:17.668Z,20.87
2022-07-29T08:09:28.857Z,20.89
2022-07-29T08:10:23.122Z,20.90
2022-07-29T08:11:18.523Z,20.91
2022-07-29T08:12:18.891Z,20.90
2022-07-29T08:13:19.054Z,20.90
2022-07-29T08:14:19.551Z,20.90
2022-07-29T08:15:19.620Z,20.89
2022-07-29T08:16:19.953Z,20.86
2022-07-29T08:17:20.119Z,20.90
2022-07-29T08:18:20.406Z,20.91
2022-07-29T08:19:20.699Z,20.93
2022-07-29T08:20:20.993Z,20.96
2022-07-29T08:21:21.329Z,20.98
2022-07-29T08:22:21.630Z,20.99
2022-07-29T08:23:22.126Z,21.01
2022-07-29T08:24:22.222Z,21.02
2022-07-29T08:25:22.521Z,21.05
2022-07-29T08:26:22.864Z,21.04
2022-07-29T08:27:42.344Z,21.08
2022-07-29T08:28:25.947Z,21.08
2022-07-29T08:29:27.530Z,21.11
2022-07-29T08:30:24.019Z,21.20
2022-07-29T08:31:24.398Z,21.24
2022-07-29T08:32:50.894Z,21.27
2022-07-29T08:33:25.948Z,21.29
2022-07-29T08:34:27.804Z,21.29
2022-07-29T08:35:25.503Z,21.34
2022-07-29T08:36:25.802Z,21.36
2022-07-29T08:37:26.104Z,21.38
2022-07-29T08:38:26.412Z,21.41
2022-07-29T08:39:26.755Z,21.41
2022-07-29T08:40:32.319Z,21.42
2022-07-29T08:41:28.264Z,21.39
2022-07-29T08:42:27.501Z,21.39
2022-07-29T08:43:27.779Z,21.35
2022-07-29T08:44:30.857Z,21.35
2022-07-29T08:45:28.421Z,21.36
2022-07-29T08:46:30.355Z,21.32
2022-07-29T08:47:28.862Z,21.30
2022-07-29T08:48:29.156Z,21.26
2022-07-29T08:49:29.504Z,21.24
2022-07-29T08:50:31.638Z,21.23
2022-07-29T08:51:30.041Z,21.20
2022-07-29T08:52:32.190Z,21.20
2022-07-29T08:53:30.585Z,21.17
2022-07-29T08:54:30.896Z,21.14
2022-07-29T08:55:31.230Z,21.13
2022-07-29T08:56:31.538Z,21.11
2022-07-29T08:57:31.815Z,21.08
2022-07-29T08:58:36.526Z,21.05
2022-07-29T08:59:32.323Z,21.05
2022-07-29T09:00:32.638Z,21.02
2022-07-29T09:01:36.367Z,21.05
2022-07-29T09:02:34.233Z,21.05
2022-07-29T09:03:37.459Z,21.01
2022-07-29T09:04:33.782Z,21.01
2022-07-29T09:05:39.486Z,21.02
2022-07-29T09:06:35.373Z,21.02
2022-07-29T09:07:34.942Z,20.98
2022-07-29T09:08:34.937Z,20.95
2022-07-29T09:09:35.219Z,20.95
2022-07-29T09:10:35.543Z,20.91
2022-07-29T09:11:35.852Z,20.93
2022-07-29T09:12:38.125Z,20.90
2022-07-29T09:13:36.941Z,20.93
2022-07-29T09:14:36.654Z,20.90
2022-07-29T09:15:36.953Z,20.89
2022-07-29T09:16:52.311Z,20.89
2022-07-29T09:17:38.596Z,20.83
2022-07-29T09:18:37.904Z,20.86
2022-07-29T09:19:38.991Z,20.89
2022-07-29T09:20:39.462Z,20.87
2022-07-29T09:21:38.711Z,20.89
2022-07-29T09:22:42.055Z,20.93
2022-07-29T09:23:39.333Z,20.90
2022-07-29T09:24:39.682Z,20.87
2022-07-29T09:25:39.865Z,20.87
2022-07-29T09:26:40.163Z,20.86
2022-07-29T09:27:40.484Z,20.83
2022-07-29T09:28:40.771Z,20.83
2022-07-29T09:29:41.065Z,20.84
2022-07-29T09:30:41.403Z,20.81
2022-07-29T09:31:41.639Z,20.81
2022-07-29T09:32:41.865Z,20.80
2022-07-29T09:33:42.093Z,20.83
2022-07-29T09:34:42.409Z,20.84
2022-07-29T09:35:42.765Z,20.83
2022-07-29T09:36:44.056Z,20.86
2022-07-29T09:37:43.292Z,20.89
2022-07-29T09:38:43.587Z,20.87
2022-07-29T09:39:43.894Z,20.87
2022-07-29T09:40:44.232Z,20.87
2022-07-29T09:41:44.415Z,20.80
2022-07-29T09:42:44.709Z,20.76
2022-07-29T09:43:44.997Z,20.69
2022-07-29T09:44:45.286Z,20.64
2022-07-29T09:45:45.629Z,20.59
2022-07-29T09:46:49.786Z,20.54
2022-07-29T09:47:46.196Z,20.54
2022-07-29T09:48:46.449Z,20.53
2022-07-29T09:49:46.664Z,20.51
2022-07-29T09:50:46.961Z,20.53
2022-07-29T09:51:47.291Z,20.51
2022-07-29T09:52:47.639Z,20.50
2022-07-29T09:53:47.838Z,20.49
2022-07-29T09:54:48.237Z,20.49
2022-07-29T09:55:48.445Z,20.46
2022-07-29T09:56:48.768Z,20.42
2022-07-29T09:57:49.847Z,20.38
2022-07-29T09:58:49.355Z,20.35
2022-07-29T09:59:50.221Z,20.38
2022-07-29T10:00:49.953Z,20.39
2022-07-29T10:01:50.160Z,20.38
2022-07-29T10:02:54.300Z,20.35
2022-07-29T10:03:50.707Z,20.31
2022-07-29T10:04:50.950Z,20.30
2022-07-29T10:05:51.269Z,20.27
2022-07-29T10:06:51.577Z,20.28
2022-07-29T10:07:54.128Z,20.30
2022-07-29T10:08:52.159Z,20.30
2022-07-29T10:09:52.474Z,20.31
2022-07-29T10:10:52.771Z,20.33
2022-07-29T10:11:53.065Z,20.35
2022-07-29T10:12:53.394Z,20.41
2022-07-29T10:13:53.708Z,20.43
2022-07-29T10:14:54.011Z,20.46
2022-07-29T10:15:54.333Z,20.49
2022-07-29T10:16:58.459Z,20.49
2022-07-29T10:17:54.815Z,20.54
2022-07-29T10:18:56.954Z,20.58
2022-07-29T10:19:55.368Z,20.61
2022-07-29T10:20:55.822Z,20.69
2022-07-29T10:21:58.140Z,20.72
2022-07-29T10:22:56.210Z,20.76
2022-07-29T10:23:56.510Z,20.79
2022-07-29T10:24:56.780Z,20.81
2022-07-29T10:26:00.878Z,20.84
2022-07-29T10:26:57.361Z,20.89
2022-07-29T10:27:59.464Z,20.91
2022-07-29T10:28:59.747Z,20.91
2022-07-29T10:30:02.133Z,20.96
2022-07-29T10:30:58.683Z,20.93
2022-07-29T10:31:59.292Z,20.95
2022-07-29T10:32:59.209Z,20.96
2022-07-29T10:33:59.511Z,20.95
2022-07-29T10:34:59.755Z,20.95
2022-07-29T10:36:00.094Z,20.95
2022-07-29T10:37:00.278Z,20.91
2022-07-29T10:38:00.530Z,20.93
2022-07-29T10:39:00.870Z,20.89
2022-07-29T10:40:01.189Z,20.90
2022-07-29T10:41:02.103Z,20.93
2022-07-29T10:42:01.648Z,20.96
2022-07-29T10:43:01.985Z,21.01
2022-07-29T10:44:02.302Z,21.06
2022-07-29T10:45:02.686Z,21.11
2022-07-29T10:46:02.847Z,21.13
2022-07-29T10:47:03.198Z,21.13
2022-07-29T10:48:03.390Z,21.13
2022-07-29T10:49:03.814Z,21.11
2022-07-29T10:50:04.007Z,21.06
2022-07-29T10:51:04.313Z,21.09
2022-07-29T10:52:05.769Z,21.04
2022-07-29T10:53:05.006Z,21.01
2022-07-29T10:54:05.219Z,20.98
2022-07-29T10:55:07.376Z,20.95
2022-07-29T10:56:06.503Z,20.96
2022-07-29T10:57:06.152Z,20.96
2022-07-29T10:58:06.466Z,20.96
2022-07-29T10:59:06.739Z,20.95
2022-07-29T11:00:07.033Z,20.91
2022-07-29T11:01:07.336Z,20.93
2022-07-29T11:02:35.328Z,20.91
2022-07-29T11:03:10.826Z,20.91
2022-07-29T11:04:08.233Z,20.91
2022-07-29T11:05:08.466Z,20.93
2022-07-29T11:06:12.639Z,20.93
2022-07-29T11:07:08.993Z,20.93
2022-07-29T11:08:11.548Z,20.93
2022-07-29T11:09:10.551Z,20.96
2022-07-29T11:10:09.802Z,20.95
2022-07-29T11:11:15.790Z,20.95
2022-07-29T11:12:10.464Z,20.95
2022-07-29T11:13:10.798Z,20.93
2022-07-29T11:14:11.057Z,20.93
2022-07-29T11:15:11.390Z,20.91
2022-07-29T11:16:11.653Z,20.91
2022-07-29T11:17:14.039Z,20.91
2022-07-29T11:18:15.055Z,20.93
2022-07-29T11:19:16.147Z,20.93
2022-07-29T11:20:13.633Z,20.93
2022-07-29T11:21:12.949Z,20.95
2022-07-29T11:22:16.510Z,20.95
2022-07-29T11:23:13.542Z,21.02
2022-07-29T11:24:14.864Z,21.05
2022-07-29T11:25:16.769Z,21.08
2022-07-29T11:26:15.304Z,21.11
2022-07-29T11:27:14.752Z,21.14
2022-07-29T11:28:16.708Z,21.20
2022-07-29T11:29:16.341Z,21.24
2022-07-29T11:30:15.545Z,21.34
2022-07-29T11:31:15.849Z,21.38
2022-07-29T11:32:18.450Z,21.46
2022-07-29T11:33:18.433Z,21.56
2022-07-29T11:34:17.718Z,21.67
2022-07-29T11:35:18.685Z,21.81
2022-07-29T11:36:17.449Z,21.97
2022-07-29T11:37:17.810Z,22.07
2022-07-29T11:38:17.934Z,22.27
2022-07-29T11:39:18.202Z,22.53
2022-07-29T11:40:18.578Z,22.75
2022-07-29T11:41:18.930Z,23.04
2022-07-29T11:42:18.957Z,23.39
2022-07-29T11:43:20.279Z,23.50
2022-07-29T11:44:19.518Z,23.71
2022-07-29T11:45:43.082Z,23.90
2022-07-29T11:46:24.970Z,24.12
2022-07-29T11:47:20.307Z,24.29
2022-07-29T11:48:28.500Z,24.39
2022-07-29T11:49:31.624Z,24.32
2022-07-29T11:50:22.202Z,24.17
2022-07-29T11:51:32.985Z,24.01
2022-07-29T11:52:22.760Z,23.80
2022-07-29T11:53:22.064Z,23.61
2022-07-29T11:54:27.288Z,23.53
2022-07-29T11:55:22.713Z,23.45
2022-07-29T11:56:25.636Z,23.38
2022-07-29T11:57:36.478Z,23.34
2022-07-29T11:58:25.236Z,23.32
2022-07-29T11:59:33.409Z,23.29
2022-07-29T12:00:25.938Z,23.24
2022-07-29T12:01:25.264Z,23.23
2022-07-29T12:02:37.389Z,23.22
2022-07-29T12:03:35.567Z,23.17
2022-07-29T12:04:26.317Z,23.22
2022-07-29T12:05:36.857Z,23.24
2022-07-29T12:06:26.863Z,23.38
2022-07-29T12:07:32.697Z,23.67
2022-07-29T12:08:27.375Z,24.14
2022-07-29T12:09:26.621Z,24.52
2022-07-29T12:10:30.729Z,24.73
2022-07-29T12:11:27.157Z,24.61
2022-07-29T12:12:27.477Z,24.41
2022-07-29T12:13:37.657Z,24.31
2022-07-29T12:14:28.994Z,24.22
2022-07-29T12:15:39.491Z,24.26
2022-07-29T12:16:29.940Z,24.20
2022-07-29T12:17:30.509Z,23.95
2022-07-29T12:18:29.092Z,23.70
2022-07-29T12:19:29.397Z,23.55
2022-07-29T12:20:29.741Z,23.53
2022-07-29T12:21:30.056Z,23.71
2022-07-29T12:22:30.350Z,23.92
2022-07-29T12:23:34.435Z,24.14
2022-07-29T12:24:30.919Z,24.49
2022-07-29T12:25:32.602Z,24.47
2022-07-29T12:26:32.200Z,24.77
2022-07-29T12:27:31.726Z,24.59
2022-07-29T12:28:32.068Z,24.44
2022-07-29T12:29:35.254Z,24.29
2022-07-29T12:30:32.727Z,24.31
2022-07-29T12:31:42.451Z,24.07
2022-07-29T12:32:34.337Z,24.23
2022-07-29T12:33:33.601Z,24.38
2022-07-29T12:34:33.928Z,24.42
2022-07-29T12:35:34.226Z,24.27
2022-07-29T12:36:34.514Z,24.22
2022-07-29T12:37:40.925Z,24.23
2022-07-29T12:38:36.104Z,24.10
2022-07-29T12:39:35.375Z,24.12
2022-07-29T12:40:35.679Z,23.89
2022-07-29T12:41:35.982Z,23.67
2022-07-29T12:42:36.295Z,23.65
2022-07-29T12:43:36.603Z,23.50
2022-07-29T12:44:36.948Z,23.38
2022-07-29T12:45:37.156Z,23.31
2022-07-29T12:46:37.492Z,23.17
2022-07-29T12:47:37.824Z,23.15
2022-07-29T12:48:38.247Z,23.15
2022-07-29T12:49:38.469Z,23.14
2022-07-29T12:50:38.811Z,23.17
2022-07-29T12:51:39.114Z,23.24
2022-07-29T12:52:39.452Z,23.26
2022-07-29T12:53:39.693Z,23.32
2022-07-29T12:54:39.889Z,23.39
2022-07-29T12:55:40.182Z,23.26
2022-07-29T12:56:43.140Z,23.23
2022-07-29T12:57:40.790Z,23.20
2022-07-29T12:58:41.073Z,23.17
2022-07-29T12:59:41.361Z,23.22
2022-07-29T13:00:41.675Z,23.22
2022-07-29T13:01:42.018Z,23.20
2022-07-29T13:02:42.438Z,23.12
2022-07-29T13:03:42.657Z,23.11
2022-07-29T13:04:43.949Z,23.08
2022-07-29T13:05:48.552Z,23.07
2022-07-29T13:06:46.010Z,23.05
2022-07-29T13:07:55.495Z,23.04
2022-07-29T13:08:45.102Z,23.08
2022-07-29T13:09:44.343Z,23.11
2022-07-29T13:10:44.643Z,23.17
2022-07-29T13:11:48.359Z,23.23
2022-07-29T13:12:45.344Z,23.26
2022-07-29T13:13:45.643Z,23.29
2022-07-29T13:14:45.951Z,23.20
2022-07-29T13:15:46.244Z,23.15
2022-07-29T13:16:46.581Z,23.19
2022-07-29T13:17:48.054Z,23.07
2022-07-29T13:18:47.155Z,22.90
2022-07-29T13:19:47.343Z,22.87
2022-07-29T13:20:47.626Z,22.92
2022-07-29T13:21:47.935Z,22.99
2022-07-29T13:22:48.284Z,23.07
2022-07-29T13:23:48.467Z,23.08
2022-07-29T13:24:48.780Z,23.04
2022-07-29T13:25:49.089Z,23.02
2022-07-29T13:26:49.392Z,23.07
2022-07-29T13:27:53.497Z,23.07
2022-07-29T13:28:49.974Z,23.08
2022-07-29T13:29:50.288Z,23.11
2022-07-29T13:30:50.657Z,23.08
2022-07-29T13:31:50.875Z,23.07
2022-07-29T13:32:51.214Z,23.05
2022-07-29T13:33:55.378Z,23.01
2022-07-29T13:34:51.856Z,22.96
2022-07-29T13:35:52.947Z,22.96
2022-07-29T13:36:52.449Z,22.96
2022-07-29T13:37:52.782Z,22.99
2022-07-29T13:38:53.085Z,22.93
2022-07-29T13:39:53.518Z,22.90
2022-07-29T13:40:54.464Z,22.90
2022-07-29T13:41:53.956Z,22.94
2022-07-29T13:42:54.231Z,22.94
2022-07-29T13:43:54.519Z,22.94
2022-07-29T13:44:54.822Z,22.89
2022-07-29T13:45:55.204Z,22.74
2022-07-29T13:46:55.438Z,22.72
2022-07-29T13:47:55.765Z,22.82
2022-07-29T13:48:56.137Z,22.90
2022-07-29T13:49:56.346Z,22.94
2022-07-29T13:50:56.656Z,23.04
2022-07-29T13:51:57.206Z,23.12
2022-07-29T13:52:57.195Z,23.23
2022-07-29T13:53:57.489Z,23.26
2022-07-29T13:54:57.807Z,23.27
2022-07-29T13:55:58.106Z,23.34
2022-07-29T13:56:58.405Z,23.38
2022-07-29T13:57:58.698Z,23.27
2022-07-29T13:58:59.032Z,23.22
2022-07-29T13:59:59.331Z,23.29
2022-07-29T14:00:59.730Z,23.34
2022-07-29T14:02:00.324Z,23.34
2022-07-29T14:03:00.207Z,23.34
2022-07-29T14:04:00.577Z,23.39
2022-07-29T14:05:04.968Z,23.42
2022-07-29T14:06:02.145Z,23.45
2022-07-29T14:07:03.519Z,23.40
2022-07-29T14:08:01.729Z,23.47
2022-07-29T14:09:02.068Z,23.47
2022-07-29T14:10:02.371Z,23.55
2022-07-29T14:11:02.678Z,23.64
2022-07-29T14:12:02.989Z,23.70
2022-07-29T14:13:03.312Z,23.76
2022-07-29T14:14:03.671Z,23.80
2022-07-29T14:15:03.863Z,23.82
2022-07-29T14:16:04.183Z,23.83
2022-07-29T14:17:04.569Z,23.70
2022-07-29T14:18:04.775Z,23.62
2022-07-29T14:19:05.109Z,23.58
2022-07-29T14:20:05.505Z,23.53
2022-07-29T14:21:05.691Z,23.46
2022-07-29T14:22:06.004Z,23.45
2022-07-29T14:23:06.272Z,23.40
2022-07-29T14:24:17.975Z,23.40
2022-07-29T14:25:14.214Z,23.39
2022-07-29T14:26:08.728Z,23.38
2022-07-29T14:27:07.603Z,23.35
2022-07-29T14:28:07.800Z,23.26
2022-07-29T14:29:07.989Z,23.19
2022-07-29T14:30:08.293Z,23.19
2022-07-29T14:31:08.591Z,23.17
2022-07-29T14:32:08.995Z,23.17
2022-07-29T14:33:09.133Z,23.15
2022-07-29T14:34:09.421Z,23.14
2022-07-29T14:35:09.730Z,23.12
2022-07-29T14:36:10.053Z,23.08
2022-07-29T14:37:16.057Z,23.02
2022-07-29T14:38:11.658Z,23.01
2022-07-29T14:39:10.914Z,22.99
2022-07-29T14:40:11.220Z,22.97
2022-07-29T14:41:11.551Z,22.97
2022-07-29T14:42:12.738Z,22.97
2022-07-29T14:43:12.193Z,22.94
2022-07-29T14:44:12.493Z,22.93
2022-07-29T14:45:12.901Z,22.94
2022-07-29T14:46:13.124Z,22.89
2022-07-29T14:47:13.323Z,22.86
2022-07-29T14:48:15.470Z,22.86
2022-07-29T14:49:13.932Z,22.84
2022-07-29T14:50:14.243Z,22.80
2022-07-29T14:51:14.542Z,22.75
2022-07-29T14:52:14.814Z,22.68
2022-07-29T14:53:15.119Z,22.56
2022-07-29T14:54:15.423Z,22.44
2022-07-29T14:55:16.579Z,22.37
2022-07-29T14:56:36.022Z,22.29
2022-07-29T14:57:17.374Z,22.22
2022-07-29T14:58:16.802Z,22.13
2022-07-29T14:59:16.864Z,22.02